Time;durP1;ratioP1;P1;durP2;ratioP2;P2;SDS_P1;SDS_P2;PMS_P1;PMS_P2;Temp;Humidity;BMP_temperature;BMP_pressure;BME280_temperature;BME280_humidity;BME280_pressure;Samples;Min_cycle;Max_cycle;Signal;HPM_P1;HPM_P2
2023/02/16 00:01:45;;;;;;;6.32;4.00;;;18.50;46.80;;;;;;5138783;27;20152;-85
2023/02/16 00:04:19;;;;;;;6.93;4.50;;;18.50;46.80;;;;;;5104797;28;20172;-85
2023/02/16 00:06:45;;;;;;;7.13;3.72;;;18.40;46.70;;;;;;5103950;28;20255;-85
2023/02/16 00:09:10;;;;;;;7.97;4.53;;;18.40;46.70;;;;;;5121136;28;20603;-85
2023/02/16 00:14:26;;;;;;;6.82;4.10;;;18.40;46.80;;;;;;5133093;27;20153;-85
2023/02/16 00:16:55;;;;;;;6.65;4.22;;;18.40;46.70;;;;;;5103941;28;20242;-85
2023/02/16 00:19:28;;;;;;;9.35;4.60;;;18.50;46.80;;;;;;5120596;28;20161;-85
2023/02/16 00:21:57;;;;;;;7.53;4.28;;;18.40;46.90;;;;;;5138167;27;20643;-85
2023/02/16 00:24:34;;;;;;;6.22;4.32;;;18.40;46.80;;;;;;5121678;28;20232;-85
2023/02/16 00:27:01;;;;;;;7.93;4.05;;;18.40;46.90;;;;;;5121203;28;20567;-85
2023/02/16 00:29:32;;;;;;;8.20;4.38;;;18.40;46.90;;;;;;5121410;28;20203;-85
2023/02/16 00:32:00;;;;;;;7.38;3.97;;;18.40;46.80;;;;;;5138212;27;20212;-85
2023/02/16 00:34:32;;;;;;;7.72;4.30;;;18.40;46.80;;;;;;5120953;28;20161;-85
2023/02/16 00:37:01;;;;;;;6.60;4.10;;;18.40;46.80;;;;;;5120586;28;20163;-85
2023/02/16 00:39:28;;;;;;;7.22;4.32;;;18.40;47.10;;;;;;5121560;28;20172;-85
2023/02/16 00:41:56;;;;;;;6.40;4.47;;;18.30;46.90;;;;;;5137819;27;20152;-85
2023/02/16 00:44:28;;;;;;;9.45;4.80;;;18.40;47.00;;;;;;5120480;28;20508;-85
2023/02/16 00:46:57;;;;;;;8.15;4.13;;;18.40;46.90;;;;;;5121799;28;20169;-85
2023/02/16 00:49:22;;;;;;;5.55;3.70;;;18.40;47.00;;;;;;5102708;28;20164;-84
2023/02/16 00:51:49;;;;;;;6.97;4.20;;;18.40;47.10;;;;;;5119973;28;20157;-84
2023/02/16 00:54:17;;;;;;;7.30;4.20;;;18.40;47.00;;;;;;5119853;28;20171;-85
2023/02/16 00:56:44;;;;;;;6.95;4.45;;;18.30;47.00;;;;;;5119960;28;20175;-84
2023/02/16 00:59:15;;;;;;;8.07;4.35;;;18.30;47.20;;;;;;5102272;28;20270;-84
2023/02/16 01:01:42;;;;;;;7.90;4.32;;;18.30;47.10;;;;;;5120160;28;20152;-85
2023/02/16 01:04:16;;;;;;;7.82;3.83;;;18.30;47.10;;;;;;5103500;28;20631;-84
2023/02/16 01:12:01;;;;;;;6.30;3.92;;;18.30;47.20;;;;;;5133294;27;20662;-84
2023/02/16 01:14:31;;;;;;;6.72;3.80;;;18.30;47.10;;;;;;5120035;28;20168;-85
2023/02/16 01:16:56;;;;;;;8.70;4.30;;;18.30;47.10;;;;;;5104693;28;20212;-85
2023/02/16 01:19:22;;;;;;;7.85;4.35;;;18.30;47.10;;;;;;5119743;28;20223;-85
2023/02/16 01:21:51;;;;;;;7.22;4.30;;;18.30;47.20;;;;;;5119658;28;20184;-85
2023/02/16 01:24:20;;;;;;;6.68;3.80;;;18.30;47.20;;;;;;5119808;28;20169;-85
2023/02/16 01:26:48;;;;;;;7.32;4.20;;;18.30;47.30;;;;;;5102176;28;20172;-85
2023/02/16 01:29:15;;;;;;;7.25;4.25;;;18.20;47.40;;;;;;5136746;27;20210;-85
2023/02/16 01:31:45;;;;;;;10.35;4.50;;;18.30;47.40;;;;;;5119661;28;20169;-85
2023/02/16 01:34:11;;;;;;;8.80;4.50;;;18.20;47.30;;;;;;5102425;28;20680;-85
2023/02/16 01:36:40;;;;;;;7.00;4.00;;;18.20;47.50;;;;;;5118839;28;20173;-85
2023/02/16 01:39:12;;;;;;;6.88;4.43;;;18.20;47.50;;;;;;5119685;28;20212;-85
2023/02/16 01:41:56;;;;;;;7.03;3.95;;;18.30;47.50;;;;;;5118902;28;20164;-85
2023/02/16 01:44:24;;;;;;;6.70;3.80;;;18.30;47.50;;;;;;5120196;28;20219;-85
2023/02/16 01:47:24;;;;;;;6.95;4.15;;;18.20;47.60;;;;;;5136891;27;20149;-85
2023/02/16 01:49:51;;;;;;;6.80;4.13;;;18.20;47.60;;;;;;5101888;28;20176;-85
2023/02/16 01:52:31;;;;;;;7.30;4.03;;;18.20;47.60;;;;;;5119099;28;20161;-85
2023/02/16 01:55:12;;;;;;;7.30;4.30;;;18.20;47.60;;;;;;5118728;28;20251;-85
2023/02/16 01:57:54;;;;;;;6.68;4.10;;;18.20;47.60;;;;;;5118727;28;20299;-84
2023/02/16 02:00:44;;;;;;;5.90;4.15;;;18.20;47.80;;;;;;5102300;28;20534;-85
2023/02/16 02:05:50;;;;;;;7.47;4.35;;;18.20;47.70;;;;;;5133613;27;20156;-84
2023/02/16 02:08:29;;;;;;;6.05;3.80;;;18.20;47.80;;;;;;5120082;28;20177;-84
2023/02/16 02:11:09;;;;;;;6.90;4.00;;;18.20;47.80;;;;;;5103338;28;20183;-85
2023/02/16 02:13:46;;;;;;;5.40;3.92;;;18.20;47.80;;;;;;5103070;28;20180;-85
2023/02/16 02:16:15;;;;;;;7.47;4.00;;;18.10;47.80;;;;;;5136540;28;20153;-85
2023/02/16 02:18:43;;;;;;;8.88;4.68;;;18.10;47.80;;;;;;5102170;28;20288;-84
2023/02/16 02:25:04;;;;;;;8.52;3.95;;;18.10;47.90;;;;;;5114870;28;20168;-84
2023/02/16 02:27:36;;;;;;;6.47;3.92;;;18.10;47.80;;;;;;5102925;28;20270;-85
2023/02/16 02:30:35;;;;;;;6.35;3.80;;;18.10;47.80;;;;;;5137278;28;20175;-84
2023/02/16 02:33:19;;;;;;;6.45;3.85;;;18.10;47.80;;;;;;5102446;28;20172;-84
2023/02/16 02:35:48;;;;;;;6.55;4.28;;;18.10;48.00;;;;;;5136400;28;20157;-85
2023/02/16 02:38:34;;;;;;;8.20;4.28;;;18.10;47.80;;;;;;5101852;28;20558;-85
2023/02/16 02:41:12;;;;;;;8.32;3.88;;;18.10;47.90;;;;;;5102130;28;20176;-85
2023/02/16 02:43:44;;;;;;;6.10;4.10;;;18.10;48.70;;;;;;5119150;28;20169;-85
2023/02/16 02:46:36;;;;;;;7.45;4.10;;;18.10;48.00;;;;;;5118726;28;20179;-85
2023/02/16 02:49:03;;;;;;;8.02;4.03;;;18.10;48.50;;;;;;5102480;28;20214;-85
2023/02/16 02:51:29;;;;;;;5.78;4.15;;;18.10;48.10;;;;;;5119247;28;20253;-85
2023/02/16 03:02:50;;;;;;;6.30;4.00;;;18.00;48.10;;;;;;5130404;28;20156;-84
2023/02/16 03:05:18;;;;;;;6.88;3.88;;;18.00;48.30;;;;;;5117793;28;20157;-84
2023/02/16 03:07:46;;;;;;;7.55;3.90;;;18.00;48.20;;;;;;5118883;28;20165;-84
2023/02/16 03:13:00;;;;;;;6.13;3.83;;;18.00;48.20;;;;;;5106189;28;20212;-85
2023/02/16 03:15:29;;;;;;;6.35;3.92;;;18.00;48.10;;;;;;5122042;28;20194;-84
2023/02/16 03:31:22;;;;;;;5.95;3.58;;;18.00;48.30;;;;;;5136348;27;20153;-84
2023/02/16 03:33:53;;;;;;;5.18;3.65;;;17.90;48.20;;;;;;5122054;28;20196;-84
2023/02/16 03:36:23;;;;;;;6.25;4.05;;;18.00;48.20;;;;;;5104590;28;20164;-84
2023/02/16 03:38:51;;;;;;;6.53;4.30;;;18.00;48.50;;;;;;5138141;27;20185;-84
2023/02/16 03:41:17;;;;;;;7.40;4.22;;;18.00;48.40;;;;;;5121684;28;20179;-85
2023/02/16 03:43:43;;;;;;;6.60;3.97;;;17.90;48.30;;;;;;5103935;28;20164;-84
2023/02/16 03:46:11;;;;;;;5.72;3.58;;;18.00;48.40;;;;;;5120960;28;20252;-84
2023/02/16 03:48:36;;;;;;;6.63;4.30;;;18.00;48.50;;;;;;5122219;28;20183;-85
2023/02/16 03:51:02;;;;;;;7.50;3.88;;;18.00;48.40;;;;;;5104929;28;20160;-85
2023/02/16 03:53:30;;;;;;;6.53;3.80;;;17.90;48.50;;;;;;5104207;28;20168;-84
2023/02/16 03:55:57;;;;;;;5.88;3.80;;;17.90;48.50;;;;;;5122053;28;20171;-85
2023/02/16 03:58:23;;;;;;;7.32;4.00;;;17.90;48.40;;;;;;5120650;28;20220;-84
2023/02/16 04:00:52;;;;;;;5.80;3.90;;;17.90;48.30;;;;;;5121046;28;20168;-85
2023/02/16 04:03:18;;;;;;;6.00;3.88;;;17.90;48.30;;;;;;5139198;27;20153;-84
2023/02/16 04:05:43;;;;;;;8.40;4.03;;;17.90;48.40;;;;;;5121356;28;20225;-84
2023/02/16 04:08:09;;;;;;;6.55;4.00;;;17.90;48.50;;;;;;5104925;28;20173;-85
2023/02/16 04:10:36;;;;;;;7.50;4.25;;;17.90;48.30;;;;;;5121343;28;20195;-84
2023/02/16 04:13:03;;;;;;;5.90;3.78;;;17.90;48.40;;;;;;5122621;28;20172;-84
2023/02/16 04:15:30;;;;;;;7.05;4.03;;;17.90;48.40;;;;;;5122247;28;20172;-84
2023/02/16 04:17:56;;;;;;;5.38;3.63;;;17.90;48.60;;;;;;5121889;28;20216;-85
2023/02/16 04:20:24;;;;;;;6.30;4.00;;;17.90;48.60;;;;;;5121857;28;20179;-84
2023/02/16 04:22:52;;;;;;;5.60;3.55;;;17.90;48.50;;;;;;5121050;28;20161;-85
2023/02/16 04:25:21;;;;;;;6.28;3.60;;;17.90;48.50;;;;;;5121179;28;20164;-85
2023/02/16 04:27:50;;;;;;;6.35;4.05;;;17.90;48.70;;;;;;5121552;28;20500;-85
2023/02/16 04:30:19;;;;;;;5.10;3.60;;;17.80;48.70;;;;;;5121785;28;20253;-85
2023/02/16 04:32:45;;;;;;;6.40;3.80;;;17.80;48.70;;;;;;5138239;27;20183;-85
2023/02/16 04:35:11;;;;;;;7.10;3.58;;;17.90;48.60;;;;;;5121956;28;20169;-85
2023/02/16 04:37:49;;;;;;;6.13;3.88;;;17.90;48.60;;;;;;5121023;28;20192;-85
2023/02/16 04:40:15;;;;;;;7.82;3.90;;;17.90;48.50;;;;;;5121718;28;20164;-85
2023/02/16 04:42:42;;;;;;;6.07;3.58;;;17.90;48.50;;;;;;5104028;28;20168;-85
2023/02/16 04:45:09;;;;;;;6.13;3.72;;;17.90;48.70;;;;;;5121221;28;20156;-85
2023/02/16 04:47:35;;;;;;;7.60;4.00;;;17.80;48.70;;;;;;5138980;27;20183;-85
2023/02/16 04:50:05;;;;;;;6.60;4.00;;;17.90;48.70;;;;;;5103350;28;20165;-85
2023/02/16 04:52:35;;;;;;;5.38;3.60;;;17.90;48.70;;;;;;5103609;28;20191;-84
2023/02/16 04:55:01;;;;;;;7.65;3.83;;;17.80;48.60;;;;;;5103685;28;20631;-84
2023/02/16 04:57:27;;;;;;;6.85;3.95;;;17.80;48.60;;;;;;5120775;28;20224;-85
2023/02/16 04:59:56;;;;;;;5.38;3.30;;;17.90;48.70;;;;;;5120140;28;20173;-84
2023/02/16 05:02:27;;;;;;;6.70;3.50;;;17.90;48.60;;;;;;5104286;28;20218;-85
2023/02/16 05:04:57;;;;;;;5.93;3.80;;;17.90;48.80;;;;;;5121202;28;20161;-84
2023/02/16 05:07:23;;;;;;;5.53;3.55;;;17.90;48.80;;;;;;5120653;28;20168;-84
2023/02/16 05:09:50;;;;;;;5.63;3.85;;;17.80;48.70;;;;;;5137685;27;20630;-84
2023/02/16 05:14:59;;;;;;;5.32;3.80;;;17.80;48.80;;;;;;5132856;27;20160;-85
2023/02/16 05:17:26;;;;;;;6.72;3.72;;;17.90;48.80;;;;;;5137416;27;20270;-85
2023/02/16 05:19:54;;;;;;;6.38;3.90;;;17.80;48.80;;;;;;5120369;28;20694;-85
2023/02/16 05:22:20;;;;;;;5.25;3.38;;;17.80;48.80;;;;;;5119874;28;20622;-85
2023/02/16 05:24:46;;;;;;;6.60;3.80;;;17.80;48.80;;;;;;5120631;28;20165;-85
2023/02/16 05:27:15;;;;;;;7.68;3.90;;;17.90;48.80;;;;;;5120567;28;20188;-85
2023/02/16 05:29:45;;;;;;;6.18;3.65;;;17.80;48.70;;;;;;5120220;28;20173;-85
2023/02/16 05:32:11;;;;;;;6.07;3.80;;;17.80;48.90;;;;;;5120676;28;20148;-85
2023/02/16 05:34:38;;;;;;;5.93;4.18;;;17.70;48.70;;;;;;5136546;27;20174;-84
2023/02/16 05:37:05;;;;;;;6.95;3.53;;;17.80;48.70;;;;;;5137168;27;20161;-84
2023/02/16 05:39:31;;;;;;;6.95;3.90;;;17.80;48.80;;;;;;5120511;28;20226;-84
2023/02/16 05:42:02;;;;;;;6.25;3.70;;;17.80;48.80;;;;;;5136596;27;20183;-85
2023/02/16 05:44:29;;;;;;;5.60;3.53;;;17.80;48.90;;;;;;5119244;28;20168;-84
2023/02/16 05:46:57;;;;;;;5.30;3.78;;;17.80;48.90;;;;;;5119498;28;20206;-85
2023/02/16 05:49:22;;;;;;;5.15;3.80;;;17.70;48.90;;;;;;5119402;28;20197;-84
2023/02/16 05:51:48;;;;;;;5.10;3.40;;;17.80;48.90;;;;;;5119996;28;20180;-85
2023/02/16 05:54:16;;;;;;;6.15;3.97;;;17.80;48.90;;;;;;5119504;28;20168;-84
2023/02/16 05:56:47;;;;;;;5.85;3.65;;;17.80;49.10;;;;;;5119358;28;20634;-84
2023/02/16 05:59:15;;;;;;;5.63;3.45;;;17.80;49.10;;;;;;5101920;28;20228;-85
2023/02/16 06:01:45;;;;;;;6.78;3.63;;;17.80;48.90;;;;;;5103414;28;20161;-83
2023/02/16 06:04:11;;;;;;;6.22;3.72;;;17.80;49.00;;;;;;5104940;28;20224;-84
2023/02/16 06:06:38;;;;;;;7.05;3.53;;;17.80;49.00;;;;;;5138826;27;20160;-85
2023/02/16 06:09:07;;;;;;;5.90;3.47;;;17.80;48.90;;;;;;5121179;28;20251;-84
2023/02/16 06:11:35;;;;;;;5.93;3.83;;;17.70;48.70;;;;;;5138399;27;20153;-84
2023/02/16 06:14:03;;;;;;;6.93;4.10;;;17.80;49.00;;;;;;5120569;28;20161;-84
2023/02/16 06:16:31;;;;;;;5.70;3.40;;;17.70;49.20;;;;;;5119766;28;20165;-84
2023/02/16 06:18:57;;;;;;;5.97;3.92;;;17.70;49.00;;;;;;5120745;28;20218;-84
2023/02/16 06:21:22;;;;;;;5.43;3.35;;;17.70;49.00;;;;;;5120688;28;20163;-84
2023/02/16 06:23:48;;;;;;;6.43;3.90;;;17.70;49.10;;;;;;5138598;28;20153;-85
2023/02/16 06:26:15;;;;;;;6.15;3.53;;;17.70;49.10;;;;;;5120751;28;20186;-84
2023/02/16 06:28:41;;;;;;;6.25;3.83;;;17.70;49.10;;;;;;5138542;28;20153;-85
2023/02/16 06:31:07;;;;;;;5.00;3.45;;;17.70;49.10;;;;;;5138003;28;20688;-84
2023/02/16 06:33:34;;;;;;;5.03;3.20;;;17.70;49.10;;;;;;5137398;28;20607;-84
2023/02/16 06:36:01;;;;;;;5.55;3.58;;;17.80;49.10;;;;;;5121115;28;20160;-84
2023/02/16 06:38:27;;;;;;;6.70;3.85;;;17.70;49.10;;;;;;5120265;28;20196;-84
2023/02/16 06:40:56;;;;;;;6.93;4.13;;;17.70;49.00;;;;;;5102846;28;20634;-84
2023/02/16 06:43:23;;;;;;;6.97;4.20;;;17.80;49.10;;;;;;5119728;28;20152;-85
2023/02/16 06:45:49;;;;;;;5.18;3.42;;;17.70;49.10;;;;;;5103163;28;20157;-84
2023/02/16 06:48:19;;;;;;;5.95;3.47;;;17.70;49.10;;;;;;5123015;28;20165;-85
2023/02/16 06:50:44;;;;;;;6.25;3.75;;;17.70;49.00;;;;;;5104576;28;20176;-85
2023/02/16 06:53:11;;;;;;;4.45;3.45;;;17.70;49.00;;;;;;5140208;27;20217;-85
2023/02/16 06:55:37;;;;;;;5.68;3.88;;;17.80;49.70;;;;;;5139416;27;20212;-84
2023/02/16 06:58:03;;;;;;;5.43;3.25;;;17.70;49.10;;;;;;5122033;28;20645;-84
2023/02/16 07:00:32;;;;;;;5.28;3.60;;;17.70;49.10;;;;;;5103821;28;20176;-85
2023/02/16 07:02:58;;;;;;;5.63;3.28;;;17.70;49.20;;;;;;5137531;27;20172;-84
2023/02/16 07:05:27;;;;;;;4.70;3.70;;;17.70;49.10;;;;;;5103398;28;20168;-84
2023/02/16 07:07:53;;;;;;;4.80;3.30;;;17.70;49.10;;;;;;5120324;28;20241;-84
2023/02/16 07:10:19;;;;;;;6.20;3.20;;;17.70;49.10;;;;;;5120151;28;20556;-84
2023/02/16 07:12:49;;;;;;;6.85;3.75;;;17.70;49.10;;;;;;5137685;27;20172;-84
2023/02/16 07:15:16;;;;;;;5.78;3.53;;;17.70;49.10;;;;;;5104014;28;20165;-85
2023/02/16 07:17:43;;;;;;;5.13;3.50;;;17.70;49.10;;;;;;5120006;28;20257;-85
2023/02/16 07:20:11;;;;;;;5.03;3.50;;;17.70;49.00;;;;;;5102152;28;20222;-85
2023/02/16 07:22:37;;;;;;;4.82;3.38;;;17.70;49.10;;;;;;5136112;27;20172;-85
2023/02/16 07:25:04;;;;;;;5.30;3.42;;;17.70;49.00;;;;;;5118921;28;20153;-86
2023/02/16 07:27:29;;;;;;;5.60;3.35;;;17.70;49.10;;;;;;5100961;28;20168;-85
2023/02/16 07:29:55;;;;;;;5.75;3.45;;;17.80;49.10;;;;;;5119295;28;20530;-85
2023/02/16 07:32:21;;;;;;;5.53;3.28;;;17.80;48.90;;;;;;5118713;28;20181;-85
2023/02/16 07:34:50;;;;;;;4.88;3.22;;;17.80;48.60;;;;;;5107805;27;20164;-84
2023/02/16 07:37:16;;;;;;;4.55;3.20;;;17.90;48.40;;;;;;5144803;27;20166;-86
2023/02/16 07:39:45;;;;;;;4.18;3.10;;;17.90;48.00;;;;;;5128737;27;20155;-85
2023/02/16 07:42:16;;;;;;;3.72;2.78;;;18.00;48.20;;;;;;5129113;27;20223;-86
2023/02/16 07:44:43;;;;;;;4.00;2.92;;;18.10;48.10;;;;;;5145662;27;20211;-86
2023/02/16 07:47:09;;;;;;;4.85;3.10;;;18.10;47.90;;;;;;5111275;27;20180;-86
2023/02/16 07:49:35;;;;;;;5.65;3.22;;;18.20;47.70;;;;;;5111052;27;20163;-86
2023/02/16 07:52:02;;;;;;;4.43;3.20;;;18.20;47.60;;;;;;5110006;27;20155;-86
2023/02/16 07:54:30;;;;;;;5.10;3.10;;;18.20;47.50;;;;;;5126203;27;20154;-86
2023/02/16 07:56:56;;;;;;;4.38;3.13;;;18.30;47.50;;;;;;5111856;27;20170;-86
2023/02/16 07:59:21;;;;;;;4.63;2.80;;;18.30;47.50;;;;;;5106678;27;20696;-86
2023/02/16 08:01:51;;;;;;;4.13;2.80;;;18.30;47.50;;;;;;5140766;27;20502;-86
2023/02/16 08:04:18;;;;;;;3.70;2.80;;;18.20;47.40;;;;;;5138727;27;20215;-86
2023/02/16 08:06:50;;;;;;;4.47;2.92;;;18.30;47.60;;;;;;5106712;27;20159;-86
2023/02/16 08:09:17;;;;;;;5.15;3.33;;;18.20;47.80;;;;;;5105938;27;20171;-86
2023/02/16 08:11:43;;;;;;;3.65;3.00;;;18.20;47.90;;;;;;5105651;27;20250;-86
2023/02/16 08:14:10;;;;;;;3.95;3.00;;;18.20;48.00;;;;;;5122952;27;20187;-85
2023/02/16 08:16:38;;;;;;;6.65;3.17;;;18.20;48.10;;;;;;5105806;27;20224;-86
2023/02/16 08:19:04;;;;;;;4.25;3.03;;;18.20;48.20;;;;;;5123045;27;20202;-86
2023/02/16 08:21:31;;;;;;;4.85;2.88;;;18.10;47.90;;;;;;5106267;27;20164;-86
2023/02/16 08:24:00;;;;;;;4.78;3.15;;;18.20;48.10;;;;;;5106567;27;20616;-86
2023/02/16 08:26:36;;;;;;;4.82;2.80;;;18.20;48.10;;;;;;5106246;27;20180;-86
2023/02/16 08:29:05;;;;;;;3.88;2.60;;;18.20;48.00;;;;;;5108805;27;20249;-86
2023/02/16 08:31:33;;;;;;;4.63;2.92;;;18.10;47.80;;;;;;5143841;27;20179;-85
2023/02/16 08:34:01;;;;;;;3.42;2.53;;;18.30;47.10;;;;;;5125413;27;20160;-85
2023/02/16 08:36:31;;;;;;;3.30;2.60;;;18.30;47.10;;;;;;5108028;27;20172;-85
2023/02/16 08:38:57;;;;;;;3.83;2.63;;;18.40;47.10;;;;;;5106732;27;20259;-86
2023/02/16 08:41:32;;;;;;;3.47;2.40;;;18.40;47.60;;;;;;5107685;27;20222;-85
2023/02/16 08:43:59;;;;;;;3.95;2.80;;;18.30;47.20;;;;;;5123396;27;20163;-86
2023/02/16 08:46:27;;;;;;;4.15;2.60;;;18.40;47.50;;;;;;5124421;27;20164;-86
2023/02/16 08:48:55;;;;;;;4.07;2.78;;;18.40;47.20;;;;;;5140961;27;20231;-86
2023/02/16 08:51:24;;;;;;;3.65;2.50;;;18.50;47.30;;;;;;5109200;27;20187;-86
2023/02/16 08:53:51;;;;;;;3.53;2.55;;;18.40;47.10;;;;;;5108994;27;20526;-86
2023/02/16 08:56:22;;;;;;;6.40;3.28;;;18.40;47.10;;;;;;5126217;27;20159;-86
2023/02/16 08:59:01;;;;;;;8.45;2.80;;;18.40;47.50;;;;;;5129821;27;20684;-86
2023/02/16 09:01:51;;;;;;;8.35;2.88;;;18.40;47.80;;;;;;5128580;27;20159;-87
2023/02/16 09:04:23;;;;;;;4.47;2.80;;;18.40;48.00;;;;;;5119341;27;20175;-86
2023/02/16 09:06:49;;;;;;;8.35;2.83;;;18.40;47.80;;;;;;5113620;27;20165;-86
2023/02/16 09:09:23;;;;;;;6.55;2.60;;;18.30;47.90;;;;;;5126806;27;20242;-86
2023/02/16 09:11:49;;;;;;;4.32;2.65;;;18.30;47.80;;;;;;5124262;27;20165;-86
2023/02/16 09:14:21;;;;;;;3.92;2.78;;;18.30;47.80;;;;;;5103192;27;20163;-85
2023/02/16 09:16:48;;;;;;;3.55;2.47;;;18.30;47.90;;;;;;5137252;27;20163;-86
2023/02/16 09:19:16;;;;;;;6.20;2.70;;;18.40;47.90;;;;;;5101110;27;20207;-86
2023/02/16 09:21:47;;;;;;;5.85;2.67;;;18.30;48.00;;;;;;5135774;27;20171;-86
2023/02/16 09:24:13;;;;;;;6.25;2.50;;;18.30;48.00;;;;;;5119668;27;20159;-86
2023/02/16 09:26:41;;;;;;;3.78;2.47;;;18.40;47.60;;;;;;5117543;27;20570;-86
2023/02/16 09:29:11;;;;;;;4.25;2.65;;;18.40;47.80;;;;;;5119245;27;20509;-87
2023/02/16 09:31:41;;;;;;;6.63;2.47;;;18.50;47.20;;;;;;5120334;27;20170;-86
2023/02/16 09:34:13;;;;;;;5.43;2.38;;;18.50;47.20;;;;;;5138675;27;20151;-85
2023/02/16 09:36:39;;;;;;;4.07;2.50;;;18.60;47.20;;;;;;5117864;27;20258;-87
2023/02/16 09:39:06;;;;;;;3.10;2.17;;;18.50;47.40;;;;;;5118318;27;20251;-86
2023/02/16 09:42:13;;;;;;;4.38;2.63;;;18.50;47.40;;;;;;5136524;27;20167;-86
2023/02/16 09:44:53;;;;;;;5.38;2.50;;;18.50;47.20;;;;;;5138710;27;20255;-86
2023/02/16 09:47:25;;;;;;;3.40;2.60;;;18.60;47.40;;;;;;5117346;28;20533;-87
2023/02/16 09:49:52;;;;;;;4.57;2.55;;;18.60;47.30;;;;;;5102814;28;20152;-87
2023/02/16 09:52:39;;;;;;;4.05;2.33;;;18.70;47.00;;;;;;5117309;28;20144;-86
2023/02/16 09:55:10;;;;;;;4.47;2.95;;;18.70;47.30;;;;;;5103990;28;20213;-86
2023/02/16 09:57:41;;;;;;;5.97;2.47;;;18.70;47.10;;;;;;5130836;27;20284;-86
2023/02/16 10:00:30;;;;;;;4.75;2.50;;;18.60;47.30;;;;;;5100475;28;20164;-87
2023/02/16 10:03:33;;;;;;;4.65;2.30;;;18.60;47.20;;;;;;5082272;28;20649;-86
2023/02/16 10:06:30;;;;;;;2.97;2.20;;;18.60;47.60;;;;;;5096246;28;20172;-87
2023/02/16 10:09:03;;;;;;;5.10;2.63;;;18.70;47.30;;;;;;5084771;28;20240;-87
2023/02/16 10:11:53;;;;;;;3.80;2.55;;;18.70;47.60;;;;;;5105723;27;20173;-87
2023/02/16 10:14:40;;;;;;;4.45;2.38;;;18.60;47.60;;;;;;5117017;27;20178;-87
2023/02/16 10:17:22;;;;;;;3.70;2.22;;;18.60;48.00;;;;;;5117913;28;20673;-86
2023/02/16 10:20:05;;;;;;;3.63;2.45;;;18.60;48.10;;;;;;5101450;28;20179;-88
2023/02/16 10:22:35;;;;;;;2.80;1.98;;;18.60;48.00;;;;;;5104820;28;20164;-88
2023/02/16 10:25:11;;;;;;;4.05;2.33;;;18.60;48.00;;;;;;5105508;28;20171;-87
2023/02/16 10:27:40;;;;;;;4.53;2.22;;;18.70;47.70;;;;;;5102736;28;20263;-89
2023/02/16 10:30:17;;;;;;;2.63;2.17;;;18.70;47.50;;;;;;5082503;28;20168;-88
2023/02/16 10:32:55;;;;;;;3.58;2.08;;;18.70;47.60;;;;;;5126971;28;20175;-88
2023/02/16 10:35:31;;;;;;;2.63;2.00;;;18.70;47.60;;;;;;5123859;28;20220;-85
2023/02/16 10:38:20;;;;;;;3.35;2.50;;;18.70;47.90;;;;;;5072948;28;20237;-86
2023/02/16 10:40:58;;;;;;;3.50;2.03;;;18.60;47.80;;;;;;5103809;28;20206;-89
2023/02/16 10:43:41;;;;;;;3.75;2.33;;;18.70;47.60;;;;;;5052557;28;20179;-87
2023/02/16 10:46:15;;;;;;;4.75;2.70;;;18.70;47.60;;;;;;5056174;28;20169;-87
2023/02/16 10:48:42;;;;;;;2.53;1.90;;;18.70;47.30;;;;;;5054778;28;20180;-87
2023/02/16 10:51:15;;;;;;;4.22;2.63;;;18.80;47.30;;;;;;5071734;28;20236;-86
2023/02/16 10:53:50;;;;;;;3.03;2.08;;;18.80;47.10;;;;;;5088476;28;20663;-87
2023/02/16 10:56:40;;;;;;;3.28;2.58;;;18.80;47.30;;;;;;5052838;28;20202;-87
2023/02/16 10:59:15;;;;;;;3.00;2.20;;;18.80;47.40;;;;;;5061418;28;20354;-87
2023/02/16 11:01:45;;;;;;;3.85;2.55;;;18.70;47.50;;;;;;5073138;28;20172;-87
2023/02/16 11:04:37;;;;;;;3.30;2.30;;;18.70;47.50;;;;;;5031184;28;20174;-87
2023/02/16 11:08:02;;;;;;;3.25;1.98;;;18.80;47.30;;;;;;5045144;28;20181;-88
2023/02/16 11:14:14;;;;;;;3.25;2.30;;;18.80;47.30;;;;;;5045970;28;20232;-87
2023/02/16 11:16:45;;;;;;;2.97;2.17;;;18.80;47.30;;;;;;5047838;28;20246;-87
2023/02/16 11:19:27;;;;;;;3.45;2.40;;;18.70;47.50;;;;;;5030810;28;20214;-88
2023/02/16 11:21:54;;;;;;;2.67;2.10;;;18.70;47.30;;;;;;5063193;28;20764;-89
2023/02/16 11:24:32;;;;;;;4.68;2.70;;;18.80;47.30;;;;;;5031543;28;20270;-87
2023/02/16 11:27:21;;;;;;;4.25;2.70;;;18.70;47.40;;;;;;5030910;28;20239;-87
2023/02/16 11:30:10;;;;;;;2.80;2.22;;;18.80;47.20;;;;;;5045681;28;20212;-87
2023/02/16 11:32:37;;;;;;;3.85;2.65;;;18.80;47.00;;;;;;5058320;28;20186;-86
2023/02/16 11:35:08;;;;;;;2.70;2.13;;;18.90;46.90;;;;;;5012539;28;20217;-86
2023/02/16 11:37:38;;;;;;;2.92;2.40;;;18.80;46.90;;;;;;5046309;28;20189;-86
2023/02/16 11:40:22;;;;;;;3.08;2.30;;;18.80;46.90;;;;;;5077792;28;20188;-85
2023/02/16 11:42:56;;;;;;;3.33;2.33;;;18.80;47.10;;;;;;5078155;28;20166;-87
2023/02/16 11:45:45;;;;;;;5.25;2.47;;;18.70;47.10;;;;;;5060480;28;20645;-86
2023/02/16 11:48:14;;;;;;;5.72;3.17;;;18.80;47.30;;;;;;5059320;28;20218;-86
2023/02/16 11:50:56;;;;;;;3.50;2.53;;;18.70;47.20;;;;;;5077644;28;20620;-87
2023/02/16 11:53:26;;;;;;;3.80;2.70;;;18.70;47.30;;;;;;5077867;28;20174;-84
2023/02/16 11:56:12;;;;;;;5.32;2.60;;;18.80;47.20;;;;;;5063451;28;20181;-85
2023/02/16 11:58:38;;;;;;;3.97;2.60;;;18.80;47.00;;;;;;5044549;28;20218;-86
2023/02/16 12:01:35;;;;;;;4.80;2.70;;;18.80;47.20;;;;;;5079399;28;20180;-86
2023/02/16 12:04:21;;;;;;;4.63;2.50;;;18.80;47.00;;;;;;5082148;28;20211;-85
2023/02/16 12:06:56;;;;;;;6.18;2.80;;;18.80;46.90;;;;;;5103790;28;20279;-86
2023/02/16 12:09:39;;;;;;;3.47;2.47;;;18.80;46.80;;;;;;5103370;28;20593;-87
2023/02/16 12:12:14;;;;;;;5.38;2.92;;;18.90;46.90;;;;;;5104134;28;20168;-86
2023/02/16 12:15:02;;;;;;;4.63;2.70;;;18.90;46.90;;;;;;5121932;28;20238;-86
2023/02/16 12:17:55;;;;;;;4.10;2.45;;;18.90;47.10;;;;;;5105851;28;20243;-87
2023/02/16 12:20:45;;;;;;;6.05;2.72;;;18.80;47.10;;;;;;5100740;28;20181;-86
2023/02/16 12:24:19;;;;;;;;;;;;;;;;;;;;;
2023/02/16 12:27:20;;;;;;;3.70;2.50;;;18.80;47.30;;;;;;4929138;29;20250;-87
2023/02/16 12:29:58;;;;;;;3.95;2.55;;;18.80;47.10;;;;;;4885926;29;20614;-87
2023/02/16 12:32:31;;;;;;;5.90;2.90;;;18.80;48.00;;;;;;4938926;29;20258;-85
2023/02/16 12:35:30;;;;;;;4.03;3.10;;;18.80;47.40;;;;;;4923703;29;20220;-86
2023/02/16 12:38:05;;;;;;;2.92;2.40;;;18.80;47.20;;;;;;4939779;29;20233;-86
2023/02/16 12:40:50;;;;;;;4.90;3.08;;;18.80;47.20;;;;;;4938995;29;20241;-86
2023/02/16 12:43:35;;;;;;;4.35;2.60;;;18.80;47.30;;;;;;4925114;29;20296;-87
2023/02/16 12:46:13;;;;;;;4.93;2.70;;;18.80;47.30;;;;;;4939253;29;20217;-87
2023/02/16 12:49:20;;;;;;;4.40;2.90;;;18.80;47.30;;;;;;4944628;29;20214;-87
2023/02/16 12:52:04;;;;;;;5.75;2.97;;;18.90;47.10;;;;;;4931209;29;20181;-86
2023/02/16 12:55:57;;;;;;;5.78;2.83;;;18.80;47.30;;;;;;4930998;29;20185;-87
2023/02/16 12:58:32;;;;;;;5.43;2.83;;;18.80;47.20;;;;;;4915587;29;20631;-86
2023/02/16 13:01:43;;;;;;;4.75;3.22;;;18.80;47.00;;;;;;4982544;28;20190;-87
2023/02/16 13:05:07;;;;;;;;;;;;;;;;;;;;;
2023/02/16 13:07:41;;;;;;;7.57;3.40;;;18.70;46.90;;;;;;4920051;29;20306;-87
2023/02/16 13:10:51;;;;;;;5.28;3.08;;;18.80;46.90;;;;;;4922903;29;20186;-87
2023/02/16 13:13:24;;;;;;;4.68;3.15;;;18.70;46.90;;;;;;4939329;29;20204;-87
2023/02/16 13:16:15;;;;;;;4.57;3.00;;;18.70;46.90;;;;;;4938368;29;20709;-86
2023/02/16 13:18:50;;;;;;;5.93;3.08;;;18.70;47.00;;;;;;4915727;29;20239;-86
2023/02/16 13:21:38;;;;;;;5.93;3.03;;;18.70;47.20;;;;;;4886718;29;20191;-86
2023/02/16 13:24:32;;;;;;;6.25;3.30;;;18.80;47.20;;;;;;4888533;29;20206;-85
2023/02/16 13:27:18;;;;;;;4.78;3.17;;;18.80;47.20;;;;;;4889255;29;20195;-87
2023/02/16 13:30:26;;;;;;;4.22;3.20;;;18.80;47.30;;;;;;4890833;29;20186;-87
2023/02/16 13:33:13;;;;;;;4.20;2.80;;;18.80;47.30;;;;;;4894785;29;20187;-86
2023/02/16 13:36:05;;;;;;;5.30;2.95;;;18.80;47.40;;;;;;4923262;29;20191;-86
2023/02/16 13:39:05;;;;;;;3.95;2.67;;;18.80;47.30;;;;;;4967918;28;20215;-87
2023/02/16 13:42:09;;;;;;;4.68;2.90;;;18.80;47.50;;;;;;5008655;28;20186;-87
2023/02/16 13:44:57;;;;;;;4.25;2.90;;;18.80;47.30;;;;;;5006890;28;20191;-87
2023/02/16 13:48:12;;;;;;;3.88;2.78;;;18.80;47.40;;;;;;5028241;28;20155;-87
2023/02/16 13:51:00;;;;;;;3.75;2.60;;;18.80;47.40;;;;;;5008251;28;20261;-88
2023/02/16 13:53:49;;;;;;;4.18;3.08;;;18.90;47.50;;;;;;4983379;28;20233;-87
2023/02/16 13:56:22;;;;;;;7.43;3.15;;;18.80;47.50;;;;;;4966149;28;20212;-87
2023/02/16 13:58:53;;;;;;;5.10;3.20;;;18.90;47.70;;;;;;4964405;29;20351;-88
2023/02/16 14:01:36;;;;;;;9.63;3.33;;;18.90;47.70;;;;;;4929801;29;20208;-87
2023/02/16 14:04:20;;;;;;;10.70;3.47;;;18.80;47.90;;;;;;4928487;29;20188;-84
2023/02/16 14:07:13;;;;;;;14.35;3.17;;;18.90;48.00;;;;;;4929647;29;20184;-84
2023/02/16 14:09:57;;;;;;;17.73;3.60;;;18.90;48.20;;;;;;4902222;29;20231;-85